createdAt,value
2024-03-13T00:00:00.460Z,28
2024-03-13T00:04:00.517Z,24
2024-03-13T00:08:00.506Z,23
2024-03-13T00:12:00.465Z,31
2024-03-13T00:16:00.485Z,24
2024-03-13T00:20:00.744Z,32
2024-03-13T00:24:00.465Z,28
2024-03-13T00:28:00.633Z,27
2024-03-13T00:32:00.467Z,31
2024-03-13T00:36:00.452Z,26
2024-03-13T00:40:00.577Z,30
2024-03-13T00:44:00.466Z,28
2024-03-13T00:48:00.521Z,23
2024-03-13T00:52:00.501Z,23
2024-03-13T00:56:00.461Z,26
2024-03-13T01:00:00.490Z,27
2024-03-13T01:04:00.576Z,31
2024-03-13T01:08:00.462Z,26
2024-03-13T01:12:00.484Z,23
2024-03-13T01:16:00.513Z,24
2024-03-13T01:20:00.501Z,27
2024-03-13T01:24:00.475Z,27
2024-03-13T01:28:00.507Z,32
2024-03-13T01:32:00.501Z,29
2024-03-13T01:36:00.478Z,26
2024-03-13T01:40:00.493Z,28
2024-03-13T01:44:00.476Z,31
2024-03-13T01:48:00.466Z,23
2024-03-13T01:52:00.511Z,32
2024-03-13T01:56:00.449Z,22
2024-03-13T02:00:00.488Z,28
2024-03-13T02:04:00.516Z,18
2024-03-13T02:08:00.469Z,27
2024-03-13T02:12:00.504Z,20
2024-03-13T02:16:00.509Z,22
2024-03-13T02:20:00.450Z,28
2024-03-13T02:24:00.481Z,26
2024-03-13T02:28:00.540Z,30
2024-03-13T02:32:00.476Z,27
2024-03-13T02:36:00.484Z,27
2024-03-13T02:40:00.588Z,26
2024-03-13T02:44:00.467Z,20
2024-03-13T02:48:00.533Z,29
2024-03-13T02:52:00.539Z,23
2024-03-13T02:56:00.455Z,26
2024-03-13T03:00:00.474Z,23
2024-03-13T03:04:00.699Z,32
2024-03-13T03:08:00.468Z,31
2024-03-13T03:12:00.450Z,32
2024-03-13T03:16:00.526Z,27
2024-03-13T03:20:00.460Z,29
2024-03-13T03:24:00.467Z,32
2024-03-13T03:28:00.669Z,26
2024-03-13T03:32:00.465Z,28
2024-03-13T03:40:00.539Z,27
2024-03-13T03:44:00.462Z,25
2024-03-13T03:48:06.930Z,26
2024-03-13T03:52:00.572Z,27
2024-03-13T03:56:00.440Z,22
2024-03-13T04:00:00.486Z,33
2024-03-13T04:04:00.482Z,24
2024-03-13T04:08:00.464Z,31
2024-03-13T04:12:00.498Z,33
2024-03-13T04:16:00.614Z,31
2024-03-13T04:20:00.455Z,31
2024-03-13T04:24:00.472Z,25
2024-03-13T04:28:00.515Z,28
2024-03-13T04:32:00.465Z,19
2024-03-13T04:36:00.466Z,28
2024-03-13T04:40:01.467Z,25
2024-03-13T04:44:00.434Z,29
2024-03-13T04:48:00.574Z,25
2024-03-13T04:52:00.599Z,33
2024-03-13T04:56:00.474Z,33
2024-03-13T05:00:00.472Z,30
2024-03-13T05:04:00.599Z,33
2024-03-13T05:08:02.793Z,34
2024-03-13T05:12:00.458Z,41
2024-03-13T05:16:00.525Z,29
2024-03-13T05:20:00.490Z,31
2024-03-13T05:24:00.462Z,25
2024-03-13T05:28:00.487Z,27
2024-03-13T05:32:00.462Z,32
2024-03-13T05:36:00.473Z,42
2024-03-13T05:40:00.542Z,31
2024-03-13T05:44:00.500Z,27
2024-03-13T05:48:00.474Z,30
2024-03-13T05:52:00.542Z,36
2024-03-13T05:56:00.458Z,24
2024-03-13T06:00:00.466Z,30
2024-03-13T06:04:00.493Z,32
2024-03-13T06:08:00.447Z,28
2024-03-13T06:12:00.475Z,26
2024-03-13T06:16:00.528Z,36
2024-03-13T06:20:00.498Z,34
2024-03-13T06:24:00.510Z,28
2024-03-13T06:28:00.533Z,38
2024-03-13T06:32:00.446Z,32
2024-03-13T06:36:00.485Z,34
2024-03-13T06:40:00.618Z,35
2024-03-13T06:44:00.458Z,34
2024-03-13T06:48:00.518Z,35
2024-03-13T06:52:00.485Z,37
2024-03-13T06:56:00.466Z,43
2024-03-13T07:00:00.741Z,45
2024-03-13T07:04:00.539Z,34
2024-03-13T07:08:00.446Z,41
2024-03-13T07:12:00.494Z,42
2024-03-13T07:16:00.494Z,26
2024-03-13T07:20:00.485Z,34
2024-03-13T07:24:00.462Z,37
2024-03-13T07:28:00.533Z,33
2024-03-13T07:32:00.467Z,35
2024-03-13T07:36:00.483Z,30
2024-03-13T07:40:00.669Z,38
2024-03-13T07:44:00.491Z,37
2024-03-13T07:48:00.497Z,34
2024-03-13T07:52:00.559Z,46
2024-03-13T07:56:03.226Z,26
2024-03-13T08:00:00.495Z,39
2024-03-13T08:04:00.490Z,43
2024-03-13T09:08:00.453Z,29
2024-03-13T09:12:00.490Z,35
2024-03-13T09:16:00.460Z,22
2024-03-13T09:20:00.500Z,27
2024-03-13T09:24:00.628Z,30
2024-03-13T09:28:00.458Z,25
2024-03-13T09:32:00.509Z,23
2024-03-13T09:36:00.484Z,23
2024-03-13T09:40:00.509Z,21
2024-03-13T09:44:00.473Z,35
2024-03-13T09:48:00.622Z,24
2024-03-13T09:52:00.580Z,23
2024-03-13T09:56:00.478Z,23
2024-03-13T10:00:00.689Z,27
2024-03-13T10:04:00.440Z,29
2024-03-13T10:08:00.475Z,28
2024-03-13T10:12:00.536Z,31
2024-03-13T10:16:00.489Z,37
2024-03-13T10:20:00.473Z,23
2024-03-13T10:24:00.997Z,20
2024-03-13T10:28:00.466Z,17
2024-03-13T10:32:00.484Z,23
2024-03-13T10:36:00.498Z,23
2024-03-13T10:40:00.484Z,24
2024-03-13T10:44:00.478Z,29
2024-03-13T10:48:00.486Z,27
2024-03-13T10:52:00.472Z,26
2024-03-13T10:56:00.463Z,18
2024-03-13T11:00:00.531Z,17
2024-03-13T11:04:00.468Z,22
2024-03-13T11:08:00.460Z,22
2024-03-13T11:12:00.606Z,17
2024-03-13T11:16:00.434Z,24
2024-03-13T11:20:00.479Z,25
2024-03-13T11:24:00.498Z,24
2024-03-13T11:28:00.471Z,17
2024-03-13T11:32:00.464Z,22
2024-03-13T11:36:00.588Z,24
2024-03-13T11:40:00.439Z,18
2024-03-13T11:44:00.490Z,15
2024-03-13T11:48:00.496Z,21
2024-03-13T11:52:00.461Z,20
2024-03-13T11:56:00.455Z,18
2024-03-13T12:00:00.534Z,21
2024-03-13T12:04:00.504Z,25
2024-03-13T12:08:00.474Z,21
2024-03-13T12:12:00.510Z,21
2024-03-13T12:16:00.490Z,17
2024-03-13T12:20:00.448Z,20
2024-03-13T12:24:00.579Z,18
2024-03-13T12:28:00.465Z,19
2024-03-13T12:32:00.473Z,20
2024-03-13T12:36:00.681Z,20
2024-03-13T12:40:00.523Z,18
2024-03-13T12:44:00.453Z,17
2024-03-13T12:48:00.621Z,21
2024-03-13T12:52:00.447Z,17
2024-03-13T12:56:00.461Z,21
2024-03-13T13:00:00.725Z,18
2024-03-13T13:04:00.467Z,19
2024-03-13T13:08:00.528Z,16
2024-03-13T13:12:00.619Z,17
2024-03-13T13:16:00.447Z,20
2024-03-13T13:20:00.482Z,16
2024-03-13T13:24:00.641Z,15
2024-03-13T13:28:00.452Z,15
2024-03-13T13:32:00.471Z,13
2024-03-13T13:36:00.523Z,12
2024-03-13T13:40:00.485Z,15
2024-03-13T13:44:00.486Z,16
2024-03-13T13:48:00.597Z,14
2024-03-13T13:52:00.482Z,13
2024-03-13T13:56:00.454Z,11
2024-03-13T14:00:00.571Z,11
2024-03-13T14:04:00.464Z,14
2024-03-13T14:08:00.487Z,21
2024-03-13T14:12:00.534Z,18
2024-03-13T14:16:00.495Z,15
2024-03-13T14:20:00.469Z,15
2024-03-13T14:24:00.534Z,16
2024-03-13T14:28:00.447Z,18
2024-03-13T14:32:00.469Z,14
2024-03-13T14:36:00.482Z,35
2024-03-13T14:40:00.492Z,42
2024-03-13T14:44:00.472Z,31
2024-03-13T14:48:00.736Z,26
2024-03-13T14:52:00.472Z,22
2024-03-13T14:56:00.471Z,16
2024-03-13T15:00:00.932Z,20
2024-03-13T15:04:00.494Z,22
2024-03-13T15:08:00.485Z,21
2024-03-13T15:12:00.490Z,23
2024-03-13T15:16:00.453Z,17
2024-03-13T15:20:00.517Z,17
2024-03-13T15:24:00.539Z,20
2024-03-13T15:28:00.483Z,21
2024-03-13T15:32:00.553Z,15
2024-03-13T15:36:00.663Z,23
2024-03-13T15:40:00.601Z,24
2024-03-13T15:44:00.491Z,27
2024-03-13T15:48:00.658Z,17
2024-03-13T15:52:00.462Z,19
2024-03-13T15:56:00.482Z,27
2024-03-13T16:00:00.566Z,23
2024-03-13T16:04:00.486Z,20
2024-03-13T16:08:00.462Z,23
2024-03-13T16:12:00.499Z,25
2024-03-13T16:16:00.471Z,26
2024-03-13T16:20:00.480Z,26
2024-03-13T16:24:00.478Z,25
2024-03-13T16:28:00.473Z,14
2024-03-13T16:32:00.476Z,26
2024-03-13T16:36:00.516Z,31
2024-03-13T16:40:00.492Z,30
2024-03-13T16:44:00.453Z,26
2024-03-13T16:48:00.617Z,28
2024-03-13T16:52:00.456Z,27
2024-03-13T16:56:00.488Z,19
2024-03-13T17:00:00.603Z,29
2024-03-13T17:04:00.477Z,20
2024-03-13T17:08:00.461Z,19
2024-03-13T17:12:00.578Z,22
2024-03-13T17:16:00.479Z,26
2024-03-13T17:20:00.469Z,21
2024-03-13T17:24:02.331Z,19
2024-03-13T17:28:00.463Z,22
2024-03-13T17:32:00.489Z,23
2024-03-13T17:36:00.493Z,21
2024-03-13T17:40:00.520Z,23
2024-03-13T17:44:00.457Z,27
2024-03-13T17:48:00.554Z,27
2024-03-13T17:52:00.476Z,26
2024-03-13T17:56:00.483Z,34
2024-03-13T18:00:00.529Z,25
2024-03-13T18:04:00.463Z,32
2024-03-13T18:08:00.485Z,43
2024-03-13T18:12:00.573Z,37
2024-03-13T18:16:00.468Z,36
2024-03-13T18:20:00.491Z,40
2024-03-13T18:24:00.587Z,27
2024-03-13T18:28:00.484Z,27
2024-03-13T18:32:00.456Z,31
2024-03-13T18:36:00.506Z,26
2024-03-13T18:40:00.458Z,32
2024-03-13T18:44:00.478Z,29
2024-03-13T18:48:00.646Z,43
2024-03-13T18:52:00.479Z,27
2024-03-13T18:56:00.453Z,32
2024-03-13T19:00:00.557Z,29
2024-03-13T19:04:00.466Z,29
2024-03-13T19:08:00.464Z,27
2024-03-13T19:12:00.576Z,31
2024-03-13T19:16:00.463Z,26
2024-03-13T19:20:00.460Z,37
2024-03-13T19:24:00.533Z,36
2024-03-13T19:28:00.640Z,33
2024-03-13T19:32:00.445Z,35
2024-03-13T19:36:00.567Z,30
2024-03-13T19:40:00.511Z,33
2024-03-13T19:44:00.481Z,26
2024-03-13T19:48:01.176Z,20
2024-03-13T19:52:00.476Z,25
2024-03-13T19:56:00.503Z,26
2024-03-13T20:00:00.653Z,23
2024-03-13T20:04:00.473Z,22
2024-03-13T20:08:00.484Z,23
2024-03-13T20:12:00.570Z,26
2024-03-13T20:16:00.465Z,21
2024-03-13T20:20:00.517Z,22
2024-03-13T20:24:00.536Z,22
2024-03-13T20:28:00.724Z,21
2024-03-13T20:32:00.472Z,19
2024-03-13T20:36:00.560Z,22
2024-03-13T20:40:00.481Z,24
2024-03-13T20:44:00.449Z,40
2024-03-13T20:48:00.574Z,29
2024-03-13T20:52:00.471Z,25
2024-03-13T20:56:00.569Z,21
2024-03-13T21:00:00.536Z,21
2024-03-13T21:04:00.475Z,19
2024-03-13T21:08:00.468Z,21
2024-03-13T21:12:00.636Z,18
2024-03-13T21:16:04.497Z,54
2024-03-13T21:20:00.491Z,47
2024-03-13T21:24:00.520Z,39
2024-03-13T21:28:00.463Z,23
2024-03-13T21:32:00.468Z,26
2024-03-13T21:36:00.604Z,30
2024-03-13T21:40:00.614Z,31
2024-03-13T21:44:00.470Z,35
2024-03-13T21:48:00.578Z,35
2024-03-13T21:52:00.480Z,36
2024-03-13T21:56:00.472Z,35
2024-03-13T22:00:00.710Z,33
2024-03-13T22:04:00.472Z,42
2024-03-13T22:08:00.533Z,34
2024-03-13T22:12:00.539Z,47
2024-03-13T22:16:00.458Z,36
2024-03-13T22:20:00.547Z,36
2024-03-13T22:24:00.528Z,28
2024-03-13T22:28:00.462Z,44
2024-03-13T22:32:00.458Z,34
2024-03-13T22:36:00.523Z,36
2024-03-13T22:40:00.561Z,43
2024-03-13T22:44:00.461Z,36
2024-03-13T22:48:00.539Z,28
2024-03-13T22:52:00.450Z,29
2024-03-13T22:56:00.492Z,22
2024-03-13T23:00:00.590Z,20
2024-03-13T23:04:00.488Z,22
2024-03-13T23:08:00.502Z,21
2024-03-13T23:12:00.459Z,20
2024-03-13T23:16:00.479Z,16
2024-03-13T23:20:00.479Z,22
2024-03-13T23:24:00.583Z,19
2024-03-13T23:28:00.477Z,19
2024-03-13T23:32:02.506Z,19
2024-03-13T23:36:00.571Z,18
2024-03-13T23:40:00.480Z,16
2024-03-13T23:44:00.432Z,19
2024-03-13T23:48:00.645Z,15
2024-03-13T23:52:00.457Z,19
2024-03-13T23:56:00.472Z,21
